Terminal Aerodrome Forecast
Issued by NWS

Home | Current Version | Previous Version | Text Only | Print | Product List | Glossary On
Versions: 1 2 3 4 5 6 7 8 9 10 11 12 13 14 15 16 17 18 19 20 21 22 23
000
FTUS43 KTOP 292320
TAFMHK
TAF
KMHK 292320Z 3000/3024 07015G24KT P6SM -SHRA VCTS SCT010 OVC015CB
      TEMPO 3000/3004 5SM BR BKN007 OVC010
     FM300600 10010KT 5SM -RA VCTS BKN008 OVC012CB
     FM301200 18007KT P6SM VCSH BKN008 OVC015
     FM301500 23011KT P6SM SCT008 BKN015
     FM301900 25011KT P6SM SCT040=

USA.gov is the U.S. government's official web portal to all federal, state and local government web resources and services.